Haypoint, Minnesota
Current Conditions -  °F | °C
As of 3:35 AM on Friday 28 Nov 2014 (Local Time) from KGPZ Reporting Station
Overcast Overcast  
Wind Chill: -2°   Ceiling: 4200
Heat Index:   Visibility: 10mi
Dew Point:   Wind: 5mph
Humidity: 79%   Direction: 110°ESE
Pressure: 30.07"   Gusts: NA
Location:  47.0392°N, 93.6273°W
Report Text: KGPZ 280935Z AUTO 11004KT 10SM BKN042 BKN047 OVC075 M14/M17 A3007 RMK AO1
Loading
Personal Weather Stations






























Interactive Weather Map New forecast layout! Learn more

10-Day Weather Forecast

Advertisements
Track Severe Weather on mobile